Search for airport 
image banner adimage banner adimage banner ad
image banner ad

SBTE - Senador Petrônio Portela Airport

Situé à Teresina, Brazil

ICAO - SBTE, IATA - THE

Données fournies par Airmate  

Information générale

Coordonnées: S5°3'38" W42°49'28"
Élévation : 219 feet MSL.
Variation magnétique : -21° East
Voir autres Aéroports à Piauí

Données opérationnelles

Special qualification required
Heure actuelle UTC:
Heure actuelle locale:
Météo
METAR: SBTE 110700Z 00000KT CAVOK 25/23 Q1009
TAF: TAF SBTE 110339Z 1106/1118 00000KT 9999 SCT020 TN24/1109Z TX32/1116Z PROB30 1106/1109 5000 TSRA BKN015 FEW030CB BECMG 1109/1112 15007KT BECMG 1116/1118 TS BKN020 FEW030CB RMK PHQ
Voir NOTAMs / SUP AIP / TFR affectant cet aéroport [VIEW]
Fréquences de communication: [VIEW]

Pistes:

Identifiant RWYQFULongueur (ft)Largeur (ft)SurfaceLDA (ft)
027218148UNK

Coordonnées de l'aéroport

Adresse: Teresina Brazil

Vue satellite de SBTE